createdAt,value
2022-11-27T00:01:22.609Z,102320.78
2022-11-27T00:03:49.367Z,102317.03
2022-11-27T00:06:19.381Z,102314.06
2022-11-27T00:08:46.485Z,102316.75
2022-11-27T00:11:15.893Z,102317.41
2022-11-27T00:13:42.488Z,102311.75
2022-11-27T00:16:09.470Z,102304.69
2022-11-27T00:18:36.690Z,102309.63
2022-11-27T00:21:12.791Z,102300.66
2022-11-27T00:23:39.649Z,102292.97
2022-11-27T00:26:07.050Z,102294.16
2022-11-27T00:28:35.212Z,102291.03
2022-11-27T00:31:07.479Z,102278.44
2022-11-27T00:33:34.464Z,102283.53
2022-11-27T00:36:05.788Z,102268.78
2022-11-27T00:38:37.383Z,102273.53
2022-11-27T00:41:06.814Z,102270.38
2022-11-27T00:43:43.655Z,102270.03
2022-11-27T00:46:13.438Z,102266.31
2022-11-27T00:48:40.542Z,102271.88
2022-11-27T00:51:09.543Z,102266.59
2022-11-27T00:53:36.200Z,102258.97
2022-11-27T00:56:03.737Z,102264.66
2022-11-27T00:58:30.672Z,102274.72
2022-11-27T01:00:59.656Z,102271.13
2022-11-27T01:03:27.037Z,102270.50
2022-11-27T01:05:53.952Z,102256.41
2022-11-27T01:08:21.157Z,102258.63
2022-11-27T01:10:56.614Z,102259.28
2022-11-27T01:13:24.816Z,102261.13
2022-11-27T01:16:07.226Z,102255.75
2022-11-27T01:18:35.971Z,102248.06
2022-11-27T01:21:04.510Z,102248.72
2022-11-27T01:23:31.461Z,102251.22
2022-11-27T01:26:00.951Z,102252.88
2022-11-27T01:28:28.700Z,102245.09
2022-11-27T01:30:55.290Z,102250.72
2022-11-27T01:33:21.828Z,102241.28
2022-11-27T01:35:58.552Z,102230.78
2022-11-27T01:38:26.038Z,102232.47
2022-11-27T01:41:00.751Z,102231.44
2022-11-27T01:43:49.079Z,102232.84
2022-11-27T01:46:30.520Z,102229.13
2022-11-27T01:49:18.524Z,102230.78
2022-11-27T01:51:47.399Z,102232.25
2022-11-27T01:54:16.049Z,102226.88
2022-11-27T01:56:45.924Z,102227.91
2022-11-27T01:59:12.693Z,102220.88
2022-11-27T02:01:39.252Z,102218.81
2022-11-27T02:04:06.190Z,102224.84
2022-11-27T02:06:32.754Z,102213.72
2022-11-27T02:08:59.228Z,102209.38
2022-11-27T02:11:53.705Z,102207.50
2022-11-27T02:14:43.577Z,102211.41
2022-11-27T02:17:19.948Z,102210.56
2022-11-27T02:20:17.472Z,102197.13
2022-11-27T02:22:57.879Z,102197.88
2022-11-27T02:25:43.040Z,102190.50
2022-11-27T02:28:25.158Z,102183.13
2022-11-27T02:31:06.206Z,102190.50
2022-11-27T02:33:39.591Z,102183.81
2022-11-27T02:36:11.881Z,102186.91
2022-11-27T02:38:44.589Z,102194.91
2022-11-27T02:41:41.635Z,102188.63
2022-11-27T02:44:10.538Z,102189.59
2022-11-27T02:46:38.936Z,102191.78
2022-11-27T02:49:10.971Z,102186.34
2022-11-27T02:51:46.400Z,102182.38
2022-11-27T02:54:19.599Z,102172.19
2022-11-27T02:56:49.421Z,102181.03
2022-11-27T02:59:18.987Z,102172.50
2022-11-27T03:01:53.155Z,102170.94
2022-11-27T03:04:26.970Z,102171.50
2022-11-27T03:06:57.995Z,102165.69
2022-11-27T03:09:31.972Z,102169.75
2022-11-27T03:11:59.159Z,102166.78
2022-11-27T03:14:26.701Z,102154.41
2022-11-27T03:17:11.588Z,102158.81
2022-11-27T03:19:45.666Z,102161.91
2022-11-27T03:22:12.473Z,102162.00
2022-11-27T03:24:39.730Z,102154.59
2022-11-27T03:27:07.155Z,102148.13
2022-11-27T03:29:38.426Z,102148.59
2022-11-27T03:32:05.683Z,102152.63
2022-11-27T03:34:33.008Z,102149.66
2022-11-27T03:37:00.566Z,102147.34
2022-11-27T03:39:28.249Z,102152.44
2022-11-27T03:42:09.790Z,102148.94
2022-11-27T03:44:42.117Z,102149.28
2022-11-27T03:47:33.425Z,102156.06
2022-11-27T03:50:12.955Z,102143.13
2022-11-27T03:52:45.219Z,102138.03
2022-11-27T03:55:35.172Z,102149.28
2022-11-27T03:58:11.715Z,102141.59
2022-11-27T04:00:42.012Z,102134.78
2022-11-27T04:03:12.869Z,102137.00
2022-11-27T04:05:39.917Z,102139.50
2022-11-27T04:08:06.555Z,102135.13
2022-11-27T04:10:33.159Z,102125.78
2022-11-27T04:12:59.673Z,102132.81
2022-11-27T04:15:26.115Z,102141.38
2022-11-27T04:17:52.594Z,102130.94
2022-11-27T04:20:19.079Z,102131.66
2022-11-27T04:22:45.578Z,102138.06
2022-11-27T04:25:12.021Z,102132.88
2022-11-27T04:27:38.544Z,102134.03
2022-11-27T04:30:05.593Z,102138.88
2022-11-27T04:32:32.074Z,102131.47
2022-11-27T04:34:58.591Z,102126.56
2022-11-27T04:37:25.047Z,102129.53
2022-11-27T04:39:51.532Z,102128.72
2022-11-27T04:42:18.027Z,102109.09
2022-11-27T04:44:44.477Z,102111.88
2022-11-27T04:47:10.971Z,102118.81
2022-11-27T04:49:37.520Z,102113.06
2022-11-27T04:52:04.468Z,102107.88
2022-11-27T04:54:30.911Z,102106.75
2022-11-27T04:56:57.370Z,102107.31
2022-11-27T04:59:23.854Z,102095.25
2022-11-27T05:01:50.531Z,102099.16
2022-11-27T05:04:17.079Z,102088.78
2022-11-27T05:06:43.680Z,102075.22
2022-11-27T05:09:10.116Z,102075.69
2022-11-27T05:11:36.776Z,102080.31
2022-11-27T05:14:16.755Z,102072.56
2022-11-27T05:16:51.614Z,102074.63
2022-11-27T05:19:20.174Z,102072.13
2022-11-27T05:21:47.821Z,102058.72
2022-11-27T05:24:16.100Z,102058.06
2022-11-27T05:26:43.991Z,102057.59
2022-11-27T05:29:11.048Z,102054.09
2022-11-27T05:31:38.323Z,102058.44
2022-11-27T05:34:05.165Z,102057.41
2022-11-27T05:36:33.459Z,102043.56
2022-11-27T05:39:02.857Z,102046.31
2022-11-27T05:41:30.009Z,102051.03
2022-11-27T05:43:56.467Z,102037.97
2022-11-27T05:46:23.533Z,102043.34
2022-11-27T05:48:50.413Z,102033.81
2022-11-27T05:51:17.857Z,102037.16
2022-11-27T05:53:44.703Z,102024.28
2022-11-27T05:56:14.146Z,102020.63
2022-11-27T05:58:42.109Z,102019.94
2022-11-27T06:01:09.547Z,102018.13
2022-11-27T06:03:38.996Z,102015.97
2022-11-27T06:06:08.106Z,102028.06
2022-11-27T06:08:37.133Z,102030.09
2022-11-27T06:11:08.704Z,102034.97
2022-11-27T06:13:35.708Z,102028.78
2022-11-27T06:16:12.147Z,102024.44
2022-11-27T06:18:39.238Z,102025.75
2022-11-27T06:21:08.447Z,102021.94
2022-11-27T06:23:35.895Z,102011.88
2022-11-27T06:26:15.585Z,102018.25
2022-11-27T06:28:42.279Z,102023.25
2022-11-27T06:31:18.062Z,102023.91
2022-11-27T06:33:45.877Z,102011.69
2022-11-27T06:36:12.333Z,102004.97
2022-11-27T06:38:39.138Z,102011.34
2022-11-27T06:41:14.364Z,102003.94
2022-11-27T06:43:41.197Z,102008.41
2022-11-27T06:46:12.221Z,102009.91
2022-11-27T06:48:38.688Z,102006.00
2022-11-27T06:51:07.746Z,102002.88
2022-11-27T06:53:36.721Z,101992.78
2022-11-27T06:56:08.928Z,101995.28
2022-11-27T06:58:36.890Z,101991.13
2022-11-27T07:01:09.841Z,101991.59
2022-11-27T07:03:36.752Z,101989.75
2022-11-27T07:06:05.229Z,101996.59
2022-11-27T07:08:32.376Z,101990.75
2022-11-27T07:11:04.130Z,101987.72
2022-11-27T07:13:31.344Z,101983.38
2022-11-27T07:16:02.340Z,101980.03
2022-11-27T07:18:30.433Z,101973.31
2022-11-27T07:20:57.066Z,101971.81
2022-11-27T07:23:23.500Z,101972.66
2022-11-27T07:25:49.997Z,101968.78
2022-11-27T07:28:19.061Z,101974.59
2022-11-27T07:30:46.227Z,101975.06
2022-11-27T07:33:12.659Z,101976.09
2022-11-27T07:35:39.161Z,101974.03
2022-11-27T07:38:05.750Z,101967.31
2022-11-27T07:40:32.216Z,101978.03
2022-11-27T07:42:58.964Z,101971.09
2022-11-27T07:45:25.515Z,101969.13
2022-11-27T07:47:52.013Z,101970.63
2022-11-27T07:50:18.723Z,101964.91
2022-11-27T07:52:45.295Z,101962.50
2022-11-27T07:55:11.841Z,101970.03
2022-11-27T07:57:38.707Z,101970.31
2022-11-27T08:00:06.796Z,101970.38
2022-11-27T08:02:33.931Z,101967.59
2022-11-27T08:05:00.513Z,101965.25
2022-11-27T08:07:30.699Z,101963.75
2022-11-27T08:10:00.051Z,101955.03
2022-11-27T08:12:27.426Z,101956.41
2022-11-27T08:14:53.880Z,101954.66
2022-11-27T08:17:20.424Z,101961.19
2022-11-27T08:19:46.944Z,101965.59
2022-11-27T08:22:15.744Z,101952.84
2022-11-27T08:24:42.887Z,101946.50
2022-11-27T08:27:10.418Z,101946.97
2022-11-27T08:29:40.053Z,101936.06
2022-11-27T08:32:06.941Z,101943.53
2022-11-27T08:34:33.748Z,101953.91
2022-11-27T08:37:00.253Z,101953.72
2022-11-27T08:39:27.382Z,101957.88
2022-11-27T08:41:54.346Z,101951.97
2022-11-27T08:44:20.947Z,101947.88
2022-11-27T08:46:47.506Z,101938.56
2022-11-27T08:49:14.172Z,101925.97
2022-11-27T08:51:40.693Z,101934.69
2022-11-27T08:54:07.677Z,101934.50
2022-11-27T08:56:34.485Z,101923.75
2022-11-27T08:59:01.020Z,101928.13
2022-11-27T09:01:30.422Z,101935.00
2022-11-27T09:03:57.162Z,101928.97
2022-11-27T09:06:25.872Z,101924.03
2022-11-27T09:08:52.406Z,101922.38
2022-11-27T09:11:20.302Z,101925.69
2022-11-27T09:13:47.248Z,101919.28
2022-11-27T09:16:16.752Z,101912.03
2022-11-27T09:18:47.500Z,101911.19
2022-11-27T09:21:16.206Z,101913.28
2022-11-27T09:23:43.177Z,101911.81
2022-11-27T09:26:12.587Z,101895.66
2022-11-27T09:28:40.707Z,101894.84
2022-11-27T09:31:10.081Z,101890.69
2022-11-27T09:33:38.507Z,101875.81
2022-11-27T09:36:10.312Z,101878.13
2022-11-27T09:38:37.621Z,101880.81
2022-11-27T09:41:35.692Z,101882.03
2022-11-27T09:44:11.415Z,101888.44
2022-11-27T09:46:41.188Z,101878.06
2022-11-27T09:49:22.400Z,101890.03
2022-11-27T09:51:54.915Z,101889.44
2022-11-27T09:54:27.663Z,101882.31
2022-11-27T09:56:55.914Z,101883.31
2022-11-27T09:59:28.877Z,101882.50
2022-11-27T10:01:55.553Z,101871.50
2022-11-27T10:04:22.266Z,101863.84
2022-11-27T10:07:07.485Z,101858.22
2022-11-27T10:09:52.701Z,101861.13
2022-11-27T10:12:26.442Z,101859.03
2022-11-27T10:15:04.333Z,101862.16
2022-11-27T10:17:39.263Z,101849.47
2022-11-27T10:20:32.157Z,101848.78
2022-11-27T10:23:36.232Z,101841.31
2022-11-27T10:26:10.955Z,101838.63
2022-11-27T10:28:46.130Z,101842.09
2022-11-27T10:31:15.991Z,101838.81
2022-11-27T10:33:49.852Z,101843.16
2022-11-27T10:36:29.944Z,101845.66
2022-11-27T10:39:00.082Z,101832.56
2022-11-27T10:41:50.459Z,101818.84
2022-11-27T10:44:30.080Z,101813.19
2022-11-27T10:47:03.043Z,101814.41
2022-11-27T10:49:30.212Z,101815.00
2022-11-27T10:51:56.857Z,101810.00
2022-11-27T10:54:27.628Z,101808.75
2022-11-27T10:57:12.135Z,101806.22
2022-11-27T11:00:08.032Z,101806.19
2022-11-27T11:02:40.594Z,101802.84
2022-11-27T11:05:40.982Z,101804.63
2022-11-27T11:08:19.400Z,101805.59
2022-11-27T11:10:53.985Z,101797.28
2022-11-27T11:13:29.393Z,101799.31
2022-11-27T11:16:09.715Z,101798.84
2022-11-27T11:18:46.364Z,101798.06
2022-11-27T11:21:17.050Z,101790.78
2022-11-27T11:23:46.345Z,101777.25
2022-11-27T11:26:25.729Z,101784.78
2022-11-27T11:28:55.000Z,101772.63
2022-11-27T11:31:27.905Z,101770.38
2022-11-27T11:34:22.487Z,101762.41
2022-11-27T11:37:08.605Z,101768.25
2022-11-27T11:39:45.854Z,101764.31
2022-11-27T11:42:21.505Z,101753.19
2022-11-27T11:44:53.843Z,101751.16
2022-11-27T11:47:26.573Z,101751.00
2022-11-27T11:49:56.013Z,101749.50
2022-11-27T11:52:47.273Z,101747.50
2022-11-27T11:55:20.228Z,101750.28
2022-11-27T11:58:28.111Z,101742.69
2022-11-27T12:01:26.058Z,101741.03
2022-11-27T12:04:31.354Z,101732.69
2022-11-27T12:07:20.944Z,101725.03
2022-11-27T12:09:57.175Z,101730.56
2022-11-27T12:12:42.188Z,101723.44
2022-11-27T12:15:28.876Z,101714.88
2022-11-27T12:18:09.744Z,101707.97
2022-11-27T12:20:48.019Z,101711.25
2022-11-27T12:23:55.555Z,101711.03
2022-11-27T12:27:07.168Z,101714.72
2022-11-27T12:29:45.690Z,101710.72
2022-11-27T12:32:27.786Z,101697.22
2022-11-27T12:35:21.434Z,101704.41
2022-11-27T12:38:25.391Z,101704.63
2022-11-27T12:41:33.866Z,101691.91
2022-11-27T12:44:00.779Z,101681.09
2022-11-27T12:46:43.417Z,101675.22
2022-11-27T12:49:25.733Z,101671.47
2022-11-27T12:52:03.118Z,101667.25
2022-11-27T12:54:37.077Z,101661.16
2022-11-27T12:57:14.508Z,101661.06
2022-11-27T13:00:05.605Z,101663.75
2022-11-27T13:02:41.377Z,101648.69
2022-11-27T13:05:22.593Z,101657.03
2022-11-27T13:08:02.371Z,101655.66
2022-11-27T13:11:03.935Z,101654.34
2022-11-27T13:13:43.171Z,101643.41
2022-11-27T13:16:27.443Z,101636.00
2022-11-27T13:19:18.940Z,101642.94
2022-11-27T13:21:47.548Z,101628.25
2022-11-27T13:24:14.708Z,101632.00
2022-11-27T13:27:18.324Z,101623.28
2022-11-27T13:29:55.108Z,101621.53
2022-11-27T13:32:23.581Z,101611.66
2022-11-27T13:34:51.885Z,101609.44
2022-11-27T13:37:30.775Z,101608.84
2022-11-27T13:40:05.598Z,101602.00
2022-11-27T13:42:36.162Z,101604.13
2022-11-27T13:45:11.219Z,101597.53
2022-11-27T13:47:43.354Z,101595.91
2022-11-27T13:50:13.843Z,101593.78
2022-11-27T13:53:05.831Z,101584.84
2022-11-27T13:55:38.738Z,101583.41
2022-11-27T13:58:07.142Z,101581.16
2022-11-27T14:00:38.182Z,101578.84
2022-11-27T14:03:06.804Z,101574.47
2022-11-27T14:05:42.580Z,101577.78
2022-11-27T14:08:20.519Z,101574.47
2022-11-27T14:10:51.365Z,101572.59
2022-11-27T14:13:21.425Z,101577.06
2022-11-27T14:16:02.190Z,101565.06
2022-11-27T14:18:30.589Z,101560.13
2022-11-27T14:21:03.067Z,101553.75
2022-11-27T14:23:34.142Z,101564.81
2022-11-27T14:26:05.232Z,101566.34
2022-11-27T14:28:36.340Z,101557.66
2022-11-27T14:31:03.592Z,101550.22
2022-11-27T14:33:47.569Z,101543.50
2022-11-27T14:36:26.073Z,101543.16
2022-11-27T14:38:53.208Z,101536.13
2022-11-27T14:41:25.462Z,101532.09
2022-11-27T14:44:05.937Z,101524.81
2022-11-27T14:46:35.400Z,101525.88
2022-11-27T14:49:02.508Z,101511.28
2022-11-27T14:51:32.875Z,101516.00
2022-11-27T14:54:02.128Z,101509.53
2022-11-27T14:56:32.376Z,101511.16
2022-11-27T14:59:00.138Z,101507.19
2022-11-27T15:01:32.767Z,101494.22
2022-11-27T15:04:01.951Z,101490.38
2022-11-27T15:06:35.066Z,101491.53
2022-11-27T15:09:30.893Z,101482.47
2022-11-27T15:11:56.910Z,101481.28
2022-11-27T15:14:28.693Z,101477.63
2022-11-27T15:16:55.551Z,101476.72
2022-11-27T15:19:35.374Z,101483.41
2022-11-27T15:22:02.693Z,101477.78
2022-11-27T15:24:31.260Z,101471.91
2022-11-27T15:27:15.856Z,101471.09
2022-11-27T15:29:59.967Z,101469.88
2022-11-27T15:32:45.699Z,101465.91
2022-11-27T15:35:14.485Z,101458.84
2022-11-27T15:37:41.258Z,101464.69
2022-11-27T15:40:24.064Z,101463.66
2022-11-27T15:42:50.516Z,101455.03
2022-11-27T15:45:17.515Z,101455.38
2022-11-27T15:47:44.511Z,101451.97
2022-11-27T15:50:16.045Z,101452.19
2022-11-27T15:52:42.741Z,101444.69
2022-11-27T15:55:15.855Z,101435.78
2022-11-27T15:57:43.132Z,101440.94
2022-11-27T16:00:10.715Z,101444.72
2022-11-27T16:02:40.457Z,101448.34
2022-11-27T16:05:08.208Z,101441.78
2022-11-27T16:07:35.274Z,101441.31
2022-11-27T16:10:02.289Z,101442.38
2022-11-27T16:12:28.770Z,101435.31
2022-11-27T16:14:55.271Z,101429.91
2022-11-27T16:17:21.749Z,101423.22
2022-11-27T16:19:48.271Z,101412.41
2022-11-27T16:22:14.821Z,101407.34
2022-11-27T16:24:41.864Z,101399.91
2022-11-27T16:27:08.524Z,101404.75
2022-11-27T16:29:35.548Z,101403.66
2022-11-27T16:32:02.692Z,101411.06
2022-11-27T16:34:29.320Z,101402.28
2022-11-27T16:36:55.773Z,101392.75
2022-11-27T16:39:23.938Z,101400.03
2022-11-27T16:41:50.932Z,101414.91
2022-11-27T16:44:19.095Z,101399.25
2022-11-27T16:46:45.955Z,101390.28
2022-11-27T16:49:13.281Z,101371.59
2022-11-27T16:51:41.407Z,101376.28
2022-11-27T16:54:12.234Z,101358.06
2022-11-27T16:56:41.338Z,101353.41
2022-11-27T16:59:13.200Z,101357.72
2022-11-27T17:01:41.658Z,101343.16
2022-11-27T17:04:14.234Z,101332.81
2022-11-27T17:06:40.776Z,101337.66
2022-11-27T17:09:08.531Z,101341.28
2022-11-27T17:11:37.285Z,101331.53
2022-11-27T17:14:07.433Z,101335.88
2022-11-27T17:16:36.372Z,101336.22
2022-11-27T17:19:03.874Z,101337.50
2022-11-27T17:21:33.680Z,101323.50
2022-11-27T17:24:02.986Z,101312.84
2022-11-27T17:26:35.611Z,101319.88
2022-11-27T17:29:03.540Z,101307.34
2022-11-27T17:31:37.028Z,101303.44
2022-11-27T17:34:06.089Z,101299.94
2022-11-27T17:36:37.321Z,101294.06
2022-11-27T17:39:06.412Z,101301.22
2022-11-27T17:41:33.798Z,101322.34
2022-11-27T17:44:00.609Z,101318.84
2022-11-27T17:46:28.922Z,101308.84
2022-11-27T17:48:58.977Z,101332.31
2022-11-27T17:51:26.356Z,101320.44
2022-11-27T17:53:52.921Z,101321.75
2022-11-27T17:56:20.899Z,101302.50
2022-11-27T17:58:49.082Z,101297.56
2022-11-27T18:01:22.008Z,101297.00
2022-11-27T18:03:50.750Z,101297.00
2022-11-27T18:06:19.643Z,101308.16
2022-11-27T18:08:47.403Z,101305.34
2022-11-27T18:11:21.149Z,101302.00
2022-11-27T18:13:49.118Z,101297.91
2022-11-27T18:16:28.905Z,101294.75
2022-11-27T18:18:56.736Z,101292.06
2022-11-27T18:21:24.414Z,101289.69
2022-11-27T18:24:22.144Z,101280.41
2022-11-27T18:27:06.572Z,101276.44
2022-11-27T18:29:27.548Z,101279.59
2022-11-27T18:31:54.126Z,101275.16
2022-11-27T18:34:20.746Z,101265.03
2022-11-27T18:36:47.218Z,101262.44
2022-11-27T18:39:13.716Z,101263.97
2022-11-27T18:41:40.735Z,101253.97
2022-11-27T18:44:08.193Z,101254.19
2022-11-27T18:46:35.135Z,101253.97
2022-11-27T18:49:02.323Z,101251.28
2022-11-27T18:51:29.022Z,101256.69
2022-11-27T18:53:57.211Z,101255.50
2022-11-27T18:56:30.351Z,101247.47
2022-11-27T18:59:03.372Z,101256.88
2022-11-27T19:01:36.727Z,101264.91
2022-11-27T19:04:07.223Z,101255.97
2022-11-27T19:06:35.826Z,101248.88
2022-11-27T19:09:02.398Z,101252.50
2022-11-27T19:11:30.806Z,101251.19
2022-11-27T19:13:57.800Z,101240.16
2022-11-27T19:16:27.352Z,101234.38
2022-11-27T19:18:57.185Z,101246.28
2022-11-27T19:21:26.042Z,101226.41
2022-11-27T19:23:56.429Z,101222.66
2022-11-27T19:26:26.093Z,101227.59
2022-11-27T19:28:58.804Z,101223.44
2022-11-27T19:31:26.216Z,101222.13
2022-11-27T19:34:01.318Z,101227.44
2022-11-27T19:36:30.210Z,101221.78
2022-11-27T19:38:59.860Z,101207.59
2022-11-27T19:41:26.871Z,101225.31
2022-11-27T19:44:04.878Z,101210.16
2022-11-27T19:46:35.046Z,101209.06
2022-11-27T19:49:09.134Z,101213.91
2022-11-27T19:51:37.530Z,101200.88
2022-11-27T19:54:10.001Z,101212.66
2022-11-27T19:56:39.850Z,101208.41
2022-11-27T19:59:07.133Z,101211.81
2022-11-27T20:01:34.103Z,101206.13
2022-11-27T20:04:02.040Z,101209.34
2022-11-27T20:06:28.582Z,101202.91
2022-11-27T20:09:00.788Z,101206.31
2022-11-27T20:11:34.281Z,101201.59
2022-11-27T20:14:05.011Z,101194.34
2022-11-27T20:16:34.287Z,101207.75
2022-11-27T20:19:02.775Z,101185.75
2022-11-27T20:21:29.287Z,101193.25
2022-11-27T20:23:57.568Z,101188.56
2022-11-27T20:26:26.351Z,101186.84
2022-11-27T20:28:54.130Z,101185.19
2022-11-27T20:31:43.647Z,101177.31
2022-11-27T20:34:18.137Z,101189.41
2022-11-27T20:36:44.719Z,101181.56
2022-11-27T20:39:19.273Z,101182.38
2022-11-27T20:41:47.321Z,101182.13
2022-11-27T20:44:13.843Z,101179.28
2022-11-27T20:46:40.359Z,101170.25
2022-11-27T20:49:07.151Z,101178.47
2022-11-27T20:51:34.253Z,101172.59
2022-11-27T20:54:09.294Z,101179.66
2022-11-27T20:56:36.250Z,101166.97
2022-11-27T20:59:05.171Z,101165.19
2022-11-27T21:01:34.210Z,101160.97
2022-11-27T21:04:04.386Z,101162.41
2022-11-27T21:06:32.714Z,101159.59
2022-11-27T21:09:03.428Z,101135.97
2022-11-27T21:11:32.063Z,101145.84
2022-11-27T21:14:05.961Z,101143.38
2022-11-27T21:16:35.367Z,101138.44
2022-11-27T21:19:05.639Z,101134.91
2022-11-27T21:21:32.749Z,101138.66
2022-11-27T21:24:00.179Z,101130.56
2022-11-27T21:26:28.543Z,101126.72
2022-11-27T21:28:56.173Z,101133.41
2022-11-27T21:31:25.424Z,101116.13
2022-11-27T21:33:54.545Z,101122.00
2022-11-27T21:36:25.650Z,101114.69
2022-11-27T21:38:52.737Z,101114.84
2022-11-27T21:41:20.606Z,101120.19
2022-11-27T21:43:48.817Z,101121.38
2022-11-27T21:46:20.386Z,101113.81
2022-11-27T21:48:48.461Z,101099.06
2022-11-27T21:51:15.893Z,101103.69
2022-11-27T21:53:44.099Z,101097.94
2022-11-27T21:56:13.377Z,101100.66
2022-11-27T21:58:40.489Z,101094.66
2022-11-27T22:01:12.766Z,101088.53
2022-11-27T22:03:42.480Z,101077.84
2022-11-27T22:06:15.046Z,101096.16
2022-11-27T22:08:44.029Z,101085.28
2022-11-27T22:11:13.664Z,101086.19
2022-11-27T22:13:41.560Z,101077.81
2022-11-27T22:16:13.267Z,101085.25
2022-11-27T22:18:40.525Z,101082.41
2022-11-27T22:21:10.423Z,101079.88
2022-11-27T22:23:38.091Z,101078.22
2022-11-27T22:26:07.456Z,101075.06
2022-11-27T22:28:35.948Z,101066.50
2022-11-27T22:31:21.690Z,101070.38
2022-11-27T22:33:48.975Z,101069.31
2022-11-27T22:36:17.196Z,101061.56
2022-11-27T22:38:45.490Z,101058.28
2022-11-27T22:41:13.598Z,101054.28
2022-11-27T22:43:40.784Z,101065.47
2022-11-27T22:46:17.203Z,101055.59
2022-11-27T22:48:44.537Z,101054.66
2022-11-27T22:51:11.577Z,101049.88
2022-11-27T22:53:38.533Z,101053.84
2022-11-27T22:56:09.513Z,101031.22
2022-11-27T22:58:41.163Z,101029.34
2022-11-27T23:01:13.879Z,101025.09
2022-11-27T23:03:40.619Z,101022.41
2022-11-27T23:06:12.862Z,101012.47
2022-11-27T23:08:44.800Z,100998.25
2022-11-27T23:11:15.786Z,100972.50
2022-11-27T23:13:48.002Z,100953.50
2022-11-27T23:16:16.693Z,100965.91
2022-11-27T23:18:43.287Z,100966.25
2022-11-27T23:21:38.462Z,100965.91
2022-11-27T23:24:06.805Z,100957.13
2022-11-27T23:26:33.496Z,100962.28
2022-11-27T23:29:00.030Z,100953.00
2022-11-27T23:31:30.725Z,100961.09
2022-11-27T23:33:59.249Z,100970.47
2022-11-27T23:36:25.758Z,100968.59
2022-11-27T23:38:52.369Z,100962.06
2022-11-27T23:41:21.467Z,100950.56
2022-11-27T23:43:48.792Z,100951.50
2022-11-27T23:46:18.413Z,100921.72
2022-11-27T23:48:45.075Z,100943.06
2022-11-27T23:51:14.419Z,100943.41
2022-11-27T23:53:41.084Z,100943.63
2022-11-27T23:56:10.288Z,100940.72
2022-11-27T23:58:36.929Z,100953.44
